sensor_id;sensor_type;location;lat;lon;timestamp;P1;durP1;ratioP1;P2;durP2;ratioP2
78141;SDS011;67393;52.620;13.482;2024-03-02T00:01:59;61.20;;;27.02;;
78141;SDS011;67393;52.620;13.482;2024-03-02T00:04:26;61.33;;;27.33;;
78141;SDS011;67393;52.620;13.482;2024-03-02T00:06:52;61.53;;;26.67;;
78141;SDS011;67393;52.620;13.482;2024-03-02T00:09:19;58.55;;;27.15;;
78141;SDS011;67393;52.620;13.482;2024-03-02T00:11:45;61.90;;;27.13;;
78141;SDS011;67393;52.620;13.482;2024-03-02T00:14:11;71.53;;;28.15;;
78141;SDS011;67393;52.620;13.482;2024-03-02T00:16:38;64.20;;;28.20;;
78141;SDS011;67393;52.620;13.482;2024-03-02T00:19:07;64.75;;;29.63;;
78141;SDS011;67393;52.620;13.482;2024-03-02T00:21:34;55.92;;;26.30;;
78141;SDS011;67393;52.620;13.482;2024-03-02T00:24:01;55.72;;;26.90;;
78141;SDS011;67393;52.620;13.482;2024-03-02T00:26:32;59.67;;;26.75;;
78141;SDS011;67393;52.620;13.482;2024-03-02T00:28:58;60.95;;;26.77;;
78141;SDS011;67393;52.620;13.482;2024-03-02T00:31:25;62.65;;;28.15;;
78141;SDS011;67393;52.620;13.482;2024-03-02T00:33:51;64.13;;;28.00;;
78141;SDS011;67393;52.620;13.482;2024-03-02T00:36:36;64.47;;;28.25;;
78141;SDS011;67393;52.620;13.482;2024-03-02T00:39:02;67.32;;;28.50;;
78141;SDS011;67393;52.620;13.482;2024-03-02T00:41:31;60.13;;;25.63;;
78141;SDS011;67393;52.620;13.482;2024-03-02T00:46:27;63.80;;;29.80;;
78141;SDS011;67393;52.620;13.482;2024-03-02T00:48:58;64.90;;;28.30;;
78141;SDS011;67393;52.620;13.482;2024-03-02T00:51:25;70.15;;;30.90;;
78141;SDS011;67393;52.620;13.482;2024-03-02T00:53:52;64.22;;;27.77;;
78141;SDS011;67393;52.620;13.482;2024-03-02T00:56:18;70.80;;;31.80;;
78141;SDS011;67393;52.620;13.482;2024-03-02T00:58:45;65.10;;;29.92;;
78141;SDS011;67393;52.620;13.482;2024-03-02T01:01:11;64.25;;;29.73;;
78141;SDS011;67393;52.620;13.482;2024-03-02T01:03:38;71.32;;;30.70;;
78141;SDS011;67393;52.620;13.482;2024-03-02T01:06:04;65.15;;;29.70;;
78141;SDS011;67393;52.620;13.482;2024-03-02T01:08:30;74.22;;;31.45;;
78141;SDS011;67393;52.620;13.482;2024-03-02T01:10:57;66.57;;;31.63;;
78141;SDS011;67393;52.620;13.482;2024-03-02T01:13:23;68.82;;;30.83;;
78141;SDS011;67393;52.620;13.482;2024-03-02T01:15:49;67.25;;;31.45;;
78141;SDS011;67393;52.620;13.482;2024-03-02T01:18:16;63.25;;;29.35;;
78141;SDS011;67393;52.620;13.482;2024-03-02T01:20:42;66.28;;;29.63;;
78141;SDS011;67393;52.620;13.482;2024-03-02T01:23:08;69.47;;;30.95;;
78141;SDS011;67393;52.620;13.482;2024-03-02T01:25:34;64.28;;;31.88;;
78141;SDS011;67393;52.620;13.482;2024-03-02T01:28:01;72.00;;;32.75;;
78141;SDS011;67393;52.620;13.482;2024-03-02T01:30:27;66.80;;;30.48;;
78141;SDS011;67393;52.620;13.482;2024-03-02T01:32:54;72.85;;;33.28;;
78141;SDS011;67393;52.620;13.482;2024-03-02T01:35:20;69.57;;;29.67;;
78141;SDS011;67393;52.620;13.482;2024-03-02T01:37:46;78.60;;;31.95;;
78141;SDS011;67393;52.620;13.482;2024-03-02T01:40:12;71.05;;;29.75;;
78141;SDS011;67393;52.620;13.482;2024-03-02T01:42:39;68.07;;;31.33;;
78141;SDS011;67393;52.620;13.482;2024-03-02T01:45:05;70.97;;;30.88;;
78141;SDS011;67393;52.620;13.482;2024-03-02T01:47:32;70.05;;;30.65;;
78141;SDS011;67393;52.620;13.482;2024-03-02T01:49:58;66.28;;;29.92;;
78141;SDS011;67393;52.620;13.482;2024-03-02T01:52:25;67.00;;;30.05;;
78141;SDS011;67393;52.620;13.482;2024-03-02T01:54:51;60.85;;;30.67;;
78141;SDS011;67393;52.620;13.482;2024-03-02T01:57:17;68.60;;;31.48;;
78141;SDS011;67393;52.620;13.482;2024-03-02T01:59:44;68.80;;;30.42;;
78141;SDS011;67393;52.620;13.482;2024-03-02T02:02:10;76.78;;;33.00;;
78141;SDS011;67393;52.620;13.482;2024-03-02T02:04:36;63.47;;;31.80;;
78141;SDS011;67393;52.620;13.482;2024-03-02T02:07:03;76.22;;;28.73;;
78141;SDS011;67393;52.620;13.482;2024-03-02T02:09:29;71.75;;;31.45;;
78141;SDS011;67393;52.620;13.482;2024-03-02T02:11:55;63.05;;;28.83;;
78141;SDS011;67393;52.620;13.482;2024-03-02T02:14:22;67.38;;;28.92;;
78141;SDS011;67393;52.620;13.482;2024-03-02T02:16:48;68.03;;;30.33;;
78141;SDS011;67393;52.620;13.482;2024-03-02T02:19:14;70.88;;;30.30;;
78141;SDS011;67393;52.620;13.482;2024-03-02T02:21:43;67.50;;;32.03;;
78141;SDS011;67393;52.620;13.482;2024-03-02T02:24:10;64.88;;;28.60;;
78141;SDS011;67393;52.620;13.482;2024-03-02T02:26:36;69.97;;;29.85;;
78141;SDS011;67393;52.620;13.482;2024-03-02T02:29:02;67.63;;;30.13;;
78141;SDS011;67393;52.620;13.482;2024-03-02T02:31:36;63.50;;;29.00;;
78141;SDS011;67393;52.620;13.482;2024-03-02T02:34:02;65.80;;;30.67;;
78141;SDS011;67393;52.620;13.482;2024-03-02T02:36:29;64.55;;;30.23;;
78141;SDS011;67393;52.620;13.482;2024-03-02T02:38:55;67.32;;;30.67;;
78141;SDS011;67393;52.620;13.482;2024-03-02T02:41:21;69.32;;;29.98;;
78141;SDS011;67393;52.620;13.482;2024-03-02T02:43:48;78.80;;;31.00;;
78141;SDS011;67393;52.620;13.482;2024-03-02T02:46:14;82.53;;;34.05;;
78141;SDS011;67393;52.620;13.482;2024-03-02T02:48:40;78.38;;;34.88;;
78141;SDS011;67393;52.620;13.482;2024-03-02T02:51:06;85.65;;;38.05;;
78141;SDS011;67393;52.620;13.482;2024-03-02T02:53:33;85.35;;;36.83;;
78141;SDS011;67393;52.620;13.482;2024-03-02T02:55:59;84.15;;;35.53;;
78141;SDS011;67393;52.620;13.482;2024-03-02T02:58:25;94.35;;;38.83;;
78141;SDS011;67393;52.620;13.482;2024-03-02T03:00:51;91.50;;;38.67;;
78141;SDS011;67393;52.620;13.482;2024-03-02T03:03:18;89.50;;;39.15;;
78141;SDS011;67393;52.620;13.482;2024-03-02T03:05:44;86.97;;;39.60;;
78141;SDS011;67393;52.620;13.482;2024-03-02T03:08:10;90.32;;;38.33;;
78141;SDS011;67393;52.620;13.482;2024-03-02T03:10:36;89.40;;;39.22;;
78141;SDS011;67393;52.620;13.482;2024-03-02T03:13:03;91.70;;;38.40;;
78141;SDS011;67393;52.620;13.482;2024-03-02T03:15:29;99.32;;;38.17;;
78141;SDS011;67393;52.620;13.482;2024-03-02T03:17:55;88.07;;;39.85;;
78141;SDS011;67393;52.620;13.482;2024-03-02T03:20:22;95.57;;;41.00;;
78141;SDS011;67393;52.620;13.482;2024-03-02T03:22:48;93.13;;;39.17;;
78141;SDS011;67393;52.620;13.482;2024-03-02T03:25:14;97.32;;;40.58;;
78141;SDS011;67393;52.620;13.482;2024-03-02T03:27:40;92.78;;;41.13;;
78141;SDS011;67393;52.620;13.482;2024-03-02T03:30:07;97.22;;;41.72;;
78141;SDS011;67393;52.620;13.482;2024-03-02T03:32:33;94.72;;;40.08;;
78141;SDS011;67393;52.620;13.482;2024-03-02T03:35:00;95.47;;;41.05;;
78141;SDS011;67393;52.620;13.482;2024-03-02T03:37:26;95.63;;;41.33;;
78141;SDS011;67393;52.620;13.482;2024-03-02T03:39:52;99.50;;;42.70;;
78141;SDS011;67393;52.620;13.482;2024-03-02T03:42:19;89.47;;;39.17;;
78141;SDS011;67393;52.620;13.482;2024-03-02T03:44:45;92.35;;;39.35;;
78141;SDS011;67393;52.620;13.482;2024-03-02T03:47:11;90.75;;;39.03;;
78141;SDS011;67393;52.620;13.482;2024-03-02T03:49:38;95.57;;;41.35;;
78141;SDS011;67393;52.620;13.482;2024-03-02T03:52:04;92.38;;;38.22;;
78141;SDS011;67393;52.620;13.482;2024-03-02T03:54:30;92.30;;;39.20;;
78141;SDS011;67393;52.620;13.482;2024-03-02T03:56:56;92.40;;;39.38;;
78141;SDS011;67393;52.620;13.482;2024-03-02T03:59:23;102.93;;;40.75;;
78141;SDS011;67393;52.620;13.482;2024-03-02T04:01:49;94.90;;;39.10;;
78141;SDS011;67393;52.620;13.482;2024-03-02T04:04:15;96.05;;;40.38;;
78141;SDS011;67393;52.620;13.482;2024-03-02T04:06:42;88.95;;;38.95;;
78141;SDS011;67393;52.620;13.482;2024-03-02T04:09:08;88.22;;;39.60;;
78141;SDS011;67393;52.620;13.482;2024-03-02T04:11:34;95.10;;;39.50;;
78141;SDS011;67393;52.620;13.482;2024-03-02T04:14:00;83.07;;;39.13;;
78141;SDS011;67393;52.620;13.482;2024-03-02T04:16:27;94.43;;;40.38;;
78141;SDS011;67393;52.620;13.482;2024-03-02T04:18:53;90.28;;;38.72;;
78141;SDS011;67393;52.620;13.482;2024-03-02T04:21:19;96.15;;;40.45;;
78141;SDS011;67393;52.620;13.482;2024-03-02T04:23:46;93.93;;;39.70;;
78141;SDS011;67393;52.620;13.482;2024-03-02T04:26:12;98.30;;;40.63;;
78141;SDS011;67393;52.620;13.482;2024-03-02T04:28:39;95.68;;;39.50;;
78141;SDS011;67393;52.620;13.482;2024-03-02T04:31:05;88.40;;;38.08;;
78141;SDS011;67393;52.620;13.482;2024-03-02T04:33:31;86.05;;;37.85;;
78141;SDS011;67393;52.620;13.482;2024-03-02T04:35:58;99.72;;;38.63;;
78141;SDS011;67393;52.620;13.482;2024-03-02T04:38:24;82.70;;;37.10;;
78141;SDS011;67393;52.620;13.482;2024-03-02T04:40:50;80.28;;;37.03;;
78141;SDS011;67393;52.620;13.482;2024-03-02T04:43:16;87.72;;;37.85;;
78141;SDS011;67393;52.620;13.482;2024-03-02T04:45:42;88.18;;;38.20;;
78141;SDS011;67393;52.620;13.482;2024-03-02T04:48:09;90.75;;;37.38;;
78141;SDS011;67393;52.620;13.482;2024-03-02T04:50:35;80.32;;;37.88;;
78141;SDS011;67393;52.620;13.482;2024-03-02T04:53:01;78.90;;;35.78;;
78141;SDS011;67393;52.620;13.482;2024-03-02T04:55:27;84.43;;;37.45;;
78141;SDS011;67393;52.620;13.482;2024-03-02T04:57:54;89.72;;;38.08;;
78141;SDS011;67393;52.620;13.482;2024-03-02T05:00:20;84.82;;;38.63;;
78141;SDS011;67393;52.620;13.482;2024-03-02T05:02:47;81.30;;;35.30;;
78141;SDS011;67393;52.620;13.482;2024-03-02T05:05:13;75.72;;;35.42;;
78141;SDS011;67393;52.620;13.482;2024-03-02T05:07:39;83.35;;;35.72;;
78141;SDS011;67393;52.620;13.482;2024-03-02T05:10:06;81.28;;;36.97;;
78141;SDS011;67393;52.620;13.482;2024-03-02T05:12:32;77.05;;;35.00;;
78141;SDS011;67393;52.620;13.482;2024-03-02T05:14:58;86.75;;;35.38;;
78141;SDS011;67393;52.620;13.482;2024-03-02T05:17:24;80.93;;;34.80;;
78141;SDS011;67393;52.620;13.482;2024-03-02T05:19:51;85.60;;;37.83;;
78141;SDS011;67393;52.620;13.482;2024-03-02T05:22:17;78.70;;;35.65;;
78141;SDS011;67393;52.620;13.482;2024-03-02T05:24:43;82.05;;;35.05;;
78141;SDS011;67393;52.620;13.482;2024-03-02T05:27:10;76.60;;;33.33;;
78141;SDS011;67393;52.620;13.482;2024-03-02T05:29:36;74.40;;;33.75;;
78141;SDS011;67393;52.620;13.482;2024-03-02T05:32:02;82.25;;;33.95;;
78141;SDS011;67393;52.620;13.482;2024-03-02T05:34:28;75.60;;;34.20;;
78141;SDS011;67393;52.620;13.482;2024-03-02T05:36:55;72.57;;;32.33;;
78141;SDS011;67393;52.620;13.482;2024-03-02T05:39:21;72.47;;;33.78;;
78141;SDS011;67393;52.620;13.482;2024-03-02T05:41:47;72.90;;;32.97;;
78141;SDS011;67393;52.620;13.482;2024-03-02T05:44:13;74.80;;;33.90;;
78141;SDS011;67393;52.620;13.482;2024-03-02T05:46:40;80.07;;;32.15;;
78141;SDS011;67393;52.620;13.482;2024-03-02T05:49:06;70.18;;;32.80;;
78141;SDS011;67393;52.620;13.482;2024-03-02T05:51:33;68.18;;;31.90;;
78141;SDS011;67393;52.620;13.482;2024-03-02T05:53:59;74.35;;;32.22;;
78141;SDS011;67393;52.620;13.482;2024-03-02T05:56:25;69.07;;;30.92;;
78141;SDS011;67393;52.620;13.482;2024-03-02T05:58:51;72.03;;;32.15;;
78141;SDS011;67393;52.620;13.482;2024-03-02T06:01:18;71.88;;;31.20;;
78141;SDS011;67393;52.620;13.482;2024-03-02T06:03:44;74.15;;;33.33;;
78141;SDS011;67393;52.620;13.482;2024-03-02T06:06:11;79.55;;;34.92;;
78141;SDS011;67393;52.620;13.482;2024-03-02T06:08:37;82.05;;;34.13;;
78141;SDS011;67393;52.620;13.482;2024-03-02T06:11:04;75.75;;;34.92;;
78141;SDS011;67393;52.620;13.482;2024-03-02T06:13:30;71.28;;;34.90;;
78141;SDS011;67393;52.620;13.482;2024-03-02T06:15:56;69.82;;;33.35;;
78141;SDS011;67393;52.620;13.482;2024-03-02T06:18:22;83.68;;;34.20;;
78141;SDS011;67393;52.620;13.482;2024-03-02T06:20:49;80.05;;;33.55;;
78141;SDS011;67393;52.620;13.482;2024-03-02T06:23:15;67.05;;;32.50;;
78141;SDS011;67393;52.620;13.482;2024-03-02T06:25:41;79.93;;;35.60;;
78141;SDS011;67393;52.620;13.482;2024-03-02T06:28:07;81.85;;;34.20;;
78141;SDS011;67393;52.620;13.482;2024-03-02T06:30:34;72.32;;;31.90;;
78141;SDS011;67393;52.620;13.482;2024-03-02T06:33:00;69.97;;;31.60;;
78141;SDS011;67393;52.620;13.482;2024-03-02T06:35:27;73.55;;;32.20;;
78141;SDS011;67393;52.620;13.482;2024-03-02T06:37:53;70.18;;;33.17;;
78141;SDS011;67393;52.620;13.482;2024-03-02T06:40:19;76.50;;;36.00;;
78141;SDS011;67393;52.620;13.482;2024-03-02T06:42:45;74.60;;;34.17;;
78141;SDS011;67393;52.620;13.482;2024-03-02T06:45:12;73.00;;;34.47;;
78141;SDS011;67393;52.620;13.482;2024-03-02T06:47:38;80.00;;;35.00;;
78141;SDS011;67393;52.620;13.482;2024-03-02T06:50:04;72.43;;;33.40;;
78141;SDS011;67393;52.620;13.482;2024-03-02T06:52:31;76.95;;;34.10;;
78141;SDS011;67393;52.620;13.482;2024-03-02T06:54:57;83.15;;;36.42;;
78141;SDS011;67393;52.620;13.482;2024-03-02T06:57:23;77.88;;;36.30;;
78141;SDS011;67393;52.620;13.482;2024-03-02T06:59:50;79.22;;;34.42;;
78141;SDS011;67393;52.620;13.482;2024-03-02T07:02:16;84.70;;;34.42;;
78141;SDS011;67393;52.620;13.482;2024-03-02T07:04:43;79.20;;;34.80;;
78141;SDS011;67393;52.620;13.482;2024-03-02T07:07:09;84.00;;;35.38;;
78141;SDS011;67393;52.620;13.482;2024-03-02T07:09:35;89.78;;;39.30;;
78141;SDS011;67393;52.620;13.482;2024-03-02T07:12:01;87.25;;;39.08;;
78141;SDS011;67393;52.620;13.482;2024-03-02T07:14:28;83.80;;;38.55;;
78141;SDS011;67393;52.620;13.482;2024-03-02T07:16:54;91.25;;;39.20;;
78141;SDS011;67393;52.620;13.482;2024-03-02T07:19:20;88.57;;;37.05;;
78141;SDS011;67393;52.620;13.482;2024-03-02T07:21:47;86.55;;;37.38;;
78141;SDS011;67393;52.620;13.482;2024-03-02T07:24:13;92.13;;;39.83;;
78141;SDS011;67393;52.620;13.482;2024-03-02T07:26:39;84.13;;;37.58;;
78141;SDS011;67393;52.620;13.482;2024-03-02T07:29:08;90.55;;;36.67;;
78141;SDS011;67393;52.620;13.482;2024-03-02T07:31:35;84.22;;;34.90;;
78141;SDS011;67393;52.620;13.482;2024-03-02T07:34:01;82.43;;;35.53;;
78141;SDS011;67393;52.620;13.482;2024-03-02T07:36:30;89.28;;;37.85;;
78141;SDS011;67393;52.620;13.482;2024-03-02T07:38:57;80.13;;;38.45;;
78141;SDS011;67393;52.620;13.482;2024-03-02T07:41:23;74.13;;;34.63;;
78141;SDS011;67393;52.620;13.482;2024-03-02T07:43:49;81.45;;;37.30;;
78141;SDS011;67393;52.620;13.482;2024-03-02T07:46:15;91.50;;;37.45;;
78141;SDS011;67393;52.620;13.482;2024-03-02T07:48:42;79.68;;;34.15;;
78141;SDS011;67393;52.620;13.482;2024-03-02T07:51:08;83.75;;;36.40;;
78141;SDS011;67393;52.620;13.482;2024-03-02T07:53:34;84.32;;;35.50;;
78141;SDS011;67393;52.620;13.482;2024-03-02T07:56:00;79.07;;;35.42;;
78141;SDS011;67393;52.620;13.482;2024-03-02T07:58:27;80.63;;;35.78;;
78141;SDS011;67393;52.620;13.482;2024-03-02T08:00:53;85.05;;;35.30;;
78141;SDS011;67393;52.620;13.482;2024-03-02T08:05:47;86.70;;;34.13;;
78141;SDS011;67393;52.620;13.482;2024-03-02T08:08:13;79.50;;;34.88;;
78141;SDS011;67393;52.620;13.482;2024-03-02T08:10:39;82.28;;;36.08;;
78141;SDS011;67393;52.620;13.482;2024-03-02T08:13:05;78.78;;;34.63;;
78141;SDS011;67393;52.620;13.482;2024-03-02T08:15:32;84.85;;;35.55;;
78141;SDS011;67393;52.620;13.482;2024-03-02T08:17:58;82.70;;;35.85;;
78141;SDS011;67393;52.620;13.482;2024-03-02T08:20:24;79.28;;;34.55;;
78141;SDS011;67393;52.620;13.482;2024-03-02T08:22:51;82.13;;;36.50;;
78141;SDS011;67393;52.620;13.482;2024-03-02T08:25:17;88.40;;;36.35;;
78141;SDS011;67393;52.620;13.482;2024-03-02T08:27:43;77.90;;;34.22;;
78141;SDS011;67393;52.620;13.482;2024-03-02T08:30:10;79.95;;;32.92;;
78141;SDS011;67393;52.620;13.482;2024-03-02T08:32:36;73.20;;;33.42;;
78141;SDS011;67393;52.620;13.482;2024-03-02T08:35:03;79.47;;;33.70;;
78141;SDS011;67393;52.620;13.482;2024-03-02T08:37:30;79.22;;;34.97;;
78141;SDS011;67393;52.620;13.482;2024-03-02T08:39:56;76.40;;;34.78;;
78141;SDS011;67393;52.620;13.482;2024-03-02T08:42:22;78.70;;;35.15;;
78141;SDS011;67393;52.620;13.482;2024-03-02T08:44:49;74.18;;;34.75;;
78141;SDS011;67393;52.620;13.482;2024-03-02T08:47:15;79.30;;;32.92;;
78141;SDS011;67393;52.620;13.482;2024-03-02T08:49:42;75.95;;;31.95;;
78141;SDS011;67393;52.620;13.482;2024-03-02T08:52:08;81.43;;;34.88;;
78141;SDS011;67393;52.620;13.482;2024-03-02T08:54:35;78.55;;;33.33;;
78141;SDS011;67393;52.620;13.482;2024-03-02T08:57:01;74.05;;;31.90;;
78141;SDS011;67393;52.620;13.482;2024-03-02T08:59:27;73.82;;;34.38;;
78141;SDS011;67393;52.620;13.482;2024-03-02T09:01:53;66.85;;;31.80;;
78141;SDS011;67393;52.620;13.482;2024-03-02T09:04:20;76.97;;;32.80;;
78141;SDS011;67393;52.620;13.482;2024-03-02T09:06:50;68.18;;;30.35;;
78141;SDS011;67393;52.620;13.482;2024-03-02T09:09:16;69.38;;;31.23;;
78141;SDS011;67393;52.620;13.482;2024-03-02T09:11:42;72.57;;;30.85;;
78141;SDS011;67393;52.620;13.482;2024-03-02T09:14:09;67.13;;;30.20;;
78141;SDS011;67393;52.620;13.482;2024-03-02T09:16:35;64.47;;;29.67;;
78141;SDS011;67393;52.620;13.482;2024-03-02T09:19:01;64.68;;;28.52;;
78141;SDS011;67393;52.620;13.482;2024-03-02T09:21:28;70.80;;;30.40;;
78141;SDS011;67393;52.620;13.482;2024-03-02T09:23:54;61.58;;;28.17;;
78141;SDS011;67393;52.620;13.482;2024-03-02T09:26:21;58.30;;;29.33;;
78141;SDS011;67393;52.620;13.482;2024-03-02T09:28:47;66.68;;;29.67;;
78141;SDS011;67393;52.620;13.482;2024-03-02T09:31:13;71.90;;;30.95;;
78141;SDS011;67393;52.620;13.482;2024-03-02T09:33:39;63.53;;;29.15;;
78141;SDS011;67393;52.620;13.482;2024-03-02T09:36:10;64.28;;;28.83;;
78141;SDS011;67393;52.620;13.482;2024-03-02T09:38:42;60.50;;;28.77;;
78141;SDS011;67393;52.620;13.482;2024-03-02T09:41:08;61.05;;;29.80;;
78141;SDS011;67393;52.620;13.482;2024-03-02T09:43:34;66.60;;;28.35;;
78141;SDS011;67393;52.620;13.482;2024-03-02T09:46:01;65.35;;;28.27;;
78141;SDS011;67393;52.620;13.482;2024-03-02T09:48:27;59.90;;;27.95;;
78141;SDS011;67393;52.620;13.482;2024-03-02T09:50:54;59.97;;;27.65;;
78141;SDS011;67393;52.620;13.482;2024-03-02T09:53:20;61.35;;;29.85;;
78141;SDS011;67393;52.620;13.482;2024-03-02T09:55:47;57.90;;;27.30;;
78141;SDS011;67393;52.620;13.482;2024-03-02T09:58:14;61.25;;;29.15;;
78141;SDS011;67393;52.620;13.482;2024-03-02T10:00:40;64.35;;;29.65;;
78141;SDS011;67393;52.620;13.482;2024-03-02T10:03:11;56.00;;;26.77;;
78141;SDS011;67393;52.620;13.482;2024-03-02T10:05:37;58.95;;;26.80;;
78141;SDS011;67393;52.620;13.482;2024-03-02T10:08:03;48.42;;;23.70;;
78141;SDS011;67393;52.620;13.482;2024-03-02T10:10:34;54.08;;;24.88;;
78141;SDS011;67393;52.620;13.482;2024-03-02T10:13:04;49.17;;;24.13;;
78141;SDS011;67393;52.620;13.482;2024-03-02T10:15:30;45.25;;;22.65;;
78141;SDS011;67393;52.620;13.482;2024-03-02T10:17:56;50.83;;;23.25;;
78141;SDS011;67393;52.620;13.482;2024-03-02T10:20:23;47.55;;;23.42;;
78141;SDS011;67393;52.620;13.482;2024-03-02T10:22:50;50.10;;;23.42;;
78141;SDS011;67393;52.620;13.482;2024-03-02T10:25:29;45.55;;;20.98;;
78141;SDS011;67393;52.620;13.482;2024-03-02T10:28:08;45.22;;;22.42;;
78141;SDS011;67393;52.620;13.482;2024-03-02T10:30:35;37.50;;;19.77;;
78141;SDS011;67393;52.620;13.482;2024-03-02T10:33:01;45.88;;;20.77;;
78141;SDS011;67393;52.620;13.482;2024-03-02T10:35:28;47.28;;;21.85;;
78141;SDS011;67393;52.620;13.482;2024-03-02T10:37:54;43.33;;;20.95;;
78141;SDS011;67393;52.620;13.482;2024-03-02T10:40:21;47.10;;;22.08;;
78141;SDS011;67393;52.620;13.482;2024-03-02T10:42:47;40.25;;;19.70;;
78141;SDS011;67393;52.620;13.482;2024-03-02T10:45:15;39.92;;;19.50;;
78141;SDS011;67393;52.620;13.482;2024-03-02T10:47:44;39.63;;;19.92;;
78141;SDS011;67393;52.620;13.482;2024-03-02T10:50:13;42.55;;;20.70;;
78141;SDS011;67393;52.620;13.482;2024-03-02T10:52:39;44.63;;;20.38;;
78141;SDS011;67393;52.620;13.482;2024-03-02T10:55:06;39.75;;;18.38;;
78141;SDS011;67393;52.620;13.482;2024-03-02T10:57:33;42.55;;;20.08;;
78141;SDS011;67393;52.620;13.482;2024-03-02T11:00:02;41.30;;;20.10;;
78141;SDS011;67393;52.620;13.482;2024-03-02T11:02:29;43.35;;;21.48;;
78141;SDS011;67393;52.620;13.482;2024-03-02T11:04:56;42.67;;;18.55;;
78141;SDS011;67393;52.620;13.482;2024-03-02T11:07:27;31.33;;;17.02;;
78141;SDS011;67393;52.620;13.482;2024-03-02T11:09:57;36.72;;;18.50;;
78141;SDS011;67393;52.620;13.482;2024-03-02T11:12:28;33.67;;;17.33;;
78141;SDS011;67393;52.620;13.482;2024-03-02T11:14:55;36.60;;;16.05;;
78141;SDS011;67393;52.620;13.482;2024-03-02T11:17:21;32.50;;;16.70;;
78141;SDS011;67393;52.620;13.482;2024-03-02T11:19:48;30.70;;;15.02;;
78141;SDS011;67393;52.620;13.482;2024-03-02T11:22:15;27.13;;;14.35;;
78141;SDS011;67393;52.620;13.482;2024-03-02T11:24:48;30.92;;;14.25;;
78141;SDS011;67393;52.620;13.482;2024-03-02T11:27:15;29.83;;;14.23;;
78141;SDS011;67393;52.620;13.482;2024-03-02T11:30:01;28.25;;;14.35;;
78141;SDS011;67393;52.620;13.482;2024-03-02T11:32:27;32.25;;;16.38;;
78141;SDS011;67393;52.620;13.482;2024-03-02T11:34:53;27.58;;;13.95;;
78141;SDS011;67393;52.620;13.482;2024-03-02T11:37:20;32.58;;;14.60;;
78141;SDS011;67393;52.620;13.482;2024-03-02T11:39:47;30.85;;;15.85;;
78141;SDS011;67393;52.620;13.482;2024-03-02T11:42:15;28.58;;;14.43;;
78141;SDS011;67393;52.620;13.482;2024-03-02T11:44:42;30.23;;;16.05;;
78141;SDS011;67393;52.620;13.482;2024-03-02T11:47:10;28.30;;;14.73;;
78141;SDS011;67393;52.620;13.482;2024-03-02T11:52:12;27.17;;;14.52;;
78141;SDS011;67393;52.620;13.482;2024-03-02T11:54:40;30.75;;;14.77;;
78141;SDS011;67393;52.620;13.482;2024-03-02T11:57:07;29.00;;;15.35;;
78141;SDS011;67393;52.620;13.482;2024-03-02T11:59:33;25.90;;;13.50;;
78141;SDS011;67393;52.620;13.482;2024-03-02T12:02:00;26.88;;;14.00;;
78141;SDS011;67393;52.620;13.482;2024-03-02T12:04:26;22.98;;;12.70;;
78141;SDS011;67393;52.620;13.482;2024-03-02T12:06:59;23.98;;;13.20;;
78141;SDS011;67393;52.620;13.482;2024-03-02T12:09:26;24.70;;;12.45;;
78141;SDS011;67393;52.620;13.482;2024-03-02T12:12:06;28.08;;;13.55;;
78141;SDS011;67393;52.620;13.482;2024-03-02T12:14:33;26.58;;;13.10;;
78141;SDS011;67393;52.620;13.482;2024-03-02T12:16:59;21.85;;;12.93;;
78141;SDS011;67393;52.620;13.482;2024-03-02T12:19:26;33.80;;;13.88;;
78141;SDS011;67393;52.620;13.482;2024-03-02T12:21:53;29.27;;;14.32;;
78141;SDS011;67393;52.620;13.482;2024-03-02T12:24:20;27.73;;;13.35;;
78141;SDS011;67393;52.620;13.482;2024-03-02T12:29:12;31.27;;;13.82;;
78141;SDS011;67393;52.620;13.482;2024-03-02T12:31:39;25.48;;;13.68;;
78141;SDS011;67393;52.620;13.482;2024-03-02T12:34:06;31.00;;;14.00;;
78141;SDS011;67393;52.620;13.482;2024-03-02T12:36:39;28.38;;;15.55;;
78141;SDS011;67393;52.620;13.482;2024-03-02T12:39:05;25.08;;;12.65;;
78141;SDS011;67393;52.620;13.482;2024-03-02T12:41:32;22.55;;;11.38;;
78141;SDS011;67393;52.620;13.482;2024-03-02T12:44:00;22.58;;;12.90;;
78141;SDS011;67393;52.620;13.482;2024-03-02T12:46:26;24.13;;;12.27;;
78141;SDS011;67393;52.620;13.482;2024-03-02T12:48:53;26.83;;;12.63;;
78141;SDS011;67393;52.620;13.482;2024-03-02T12:51:19;23.42;;;13.43;;
78141;SDS011;67393;52.620;13.482;2024-03-02T12:53:45;21.70;;;12.15;;
78141;SDS011;67393;52.620;13.482;2024-03-02T12:56:12;21.95;;;11.73;;
78141;SDS011;67393;52.620;13.482;2024-03-02T12:58:41;23.25;;;11.80;;
78141;SDS011;67393;52.620;13.482;2024-03-02T13:01:07;23.35;;;11.85;;
78141;SDS011;67393;52.620;13.482;2024-03-02T13:03:40;25.70;;;13.25;;
78141;SDS011;67393;52.620;13.482;2024-03-02T13:06:06;25.83;;;13.57;;
78141;SDS011;67393;52.620;13.482;2024-03-02T13:08:33;29.48;;;13.15;;
78141;SDS011;67393;52.620;13.482;2024-03-02T13:10:59;27.83;;;13.05;;
78141;SDS011;67393;52.620;13.482;2024-03-02T13:13:26;23.02;;;12.40;;
78141;SDS011;67393;52.620;13.482;2024-03-02T13:15:55;31.13;;;13.23;;
78141;SDS011;67393;52.620;13.482;2024-03-02T13:18:22;23.05;;;12.57;;
78141;SDS011;67393;52.620;13.482;2024-03-02T13:20:48;24.80;;;11.93;;
78141;SDS011;67393;52.620;13.482;2024-03-02T13:23:14;24.38;;;12.68;;
78141;SDS011;67393;52.620;13.482;2024-03-02T13:25:41;27.35;;;12.82;;
78141;SDS011;67393;52.620;13.482;2024-03-02T13:28:07;24.08;;;11.75;;
78141;SDS011;67393;52.620;13.482;2024-03-02T13:30:33;20.98;;;10.73;;
78141;SDS011;67393;52.620;13.482;2024-03-02T13:33:00;17.48;;;10.15;;
78141;SDS011;67393;52.620;13.482;2024-03-02T13:35:26;17.05;;;9.30;;
78141;SDS011;67393;52.620;13.482;2024-03-02T13:37:52;17.33;;;10.05;;
78141;SDS011;67393;52.620;13.482;2024-03-02T13:40:19;18.08;;;10.45;;
78141;SDS011;67393;52.620;13.482;2024-03-02T13:42:48;18.42;;;9.93;;
78141;SDS011;67393;52.620;13.482;2024-03-02T13:45:15;15.63;;;9.82;;
78141;SDS011;67393;52.620;13.482;2024-03-02T13:47:41;19.75;;;10.18;;
78141;SDS011;67393;52.620;13.482;2024-03-02T13:50:07;19.27;;;10.07;;
78141;SDS011;67393;52.620;13.482;2024-03-02T13:52:33;19.55;;;9.52;;
78141;SDS011;67393;52.620;13.482;2024-03-02T13:55:00;17.13;;;9.27;;
78141;SDS011;67393;52.620;13.482;2024-03-02T13:57:26;17.23;;;9.23;;
78141;SDS011;67393;52.620;13.482;2024-03-02T13:59:52;15.90;;;9.05;;
78141;SDS011;67393;52.620;13.482;2024-03-02T14:02:19;14.35;;;8.75;;
78141;SDS011;67393;52.620;13.482;2024-03-02T14:04:45;14.70;;;8.55;;
78141;SDS011;67393;52.620;13.482;2024-03-02T14:07:11;14.82;;;9.07;;
78141;SDS011;67393;52.620;13.482;2024-03-02T14:09:38;17.17;;;8.73;;
78141;SDS011;67393;52.620;13.482;2024-03-02T14:12:04;15.75;;;8.55;;
78141;SDS011;67393;52.620;13.482;2024-03-02T14:14:31;17.83;;;9.65;;
78141;SDS011;67393;52.620;13.482;2024-03-02T14:16:57;15.95;;;8.63;;